createdAt,value
2022-08-23T00:02:23.416Z,2.35
2022-08-23T00:05:07.527Z,2.47
2022-08-23T00:07:38.398Z,2.15
2022-08-23T00:10:07.166Z,1.85
2022-08-23T00:12:33.598Z,2.10
2022-08-23T00:15:00.717Z,2.00
2022-08-23T00:17:34.712Z,2.35
2022-08-23T00:20:04.384Z,3.38
2022-08-23T00:22:30.916Z,2.88
2022-08-23T00:24:57.377Z,2.50
2022-08-23T00:27:23.778Z,2.00
2022-08-23T00:29:52.749Z,2.42
2022-08-23T00:32:24.422Z,2.08
2022-08-23T00:34:51.845Z,1.77
2022-08-23T00:37:20.036Z,2.40
2022-08-23T00:39:46.946Z,2.38
2022-08-23T00:42:32.201Z,2.38
2022-08-23T00:45:21.378Z,2.53
2022-08-23T00:47:48.381Z,2.78
2022-08-23T00:50:29.138Z,2.35
2022-08-23T00:53:12.218Z,2.60
2022-08-23T00:55:42.293Z,2.28
2022-08-23T00:58:09.106Z,2.63
2022-08-23T01:00:37.113Z,2.15
2022-08-23T01:03:07.319Z,2.22
2022-08-23T01:06:08.705Z,2.70
2022-08-23T01:08:36.834Z,2.40
2022-08-23T01:11:09.256Z,2.13
2022-08-23T01:13:48.574Z,2.63
2022-08-23T01:16:27.690Z,2.47
2022-08-23T01:18:55.450Z,2.47
2022-08-23T01:21:29.949Z,1.98
2022-08-23T01:24:03.201Z,2.20
2022-08-23T01:26:34.992Z,2.30
2022-08-23T01:29:04.613Z,2.58
2022-08-23T01:31:31.146Z,2.22
2022-08-23T01:34:04.293Z,2.40
2022-08-23T01:36:31.457Z,2.63
2022-08-23T01:38:58.316Z,3.08
2022-08-23T01:41:25.580Z,2.10
2022-08-23T01:43:52.219Z,2.50
2022-08-23T01:46:24.886Z,2.42
2022-08-23T01:48:52.009Z,2.15
2022-08-23T01:51:20.253Z,1.95
2022-08-23T01:53:47.411Z,2.35
2022-08-23T01:56:14.972Z,2.40
2022-08-23T01:58:42.182Z,2.17
2022-08-23T02:01:10.754Z,2.42
2022-08-23T02:03:37.825Z,2.63
2022-08-23T02:06:05.291Z,2.15
2022-08-23T02:08:50.575Z,2.13
2022-08-23T02:11:23.984Z,2.42
2022-08-23T02:13:51.893Z,2.53
2022-08-23T02:16:36.048Z,2.30
2022-08-23T02:19:07.233Z,3.10
2022-08-23T02:21:34.980Z,2.40
2022-08-23T02:24:11.193Z,3.15
2022-08-23T02:26:46.312Z,2.90
2022-08-23T02:29:15.072Z,2.25
2022-08-23T02:31:44.223Z,2.53
2022-08-23T02:34:12.107Z,2.42
2022-08-23T02:36:39.520Z,2.55
2022-08-23T02:39:07.400Z,3.00
2022-08-23T02:41:36.013Z,2.50
2022-08-23T02:44:02.670Z,2.30
2022-08-23T02:46:29.254Z,2.25
2022-08-23T02:48:56.773Z,2.58
2022-08-23T02:51:25.343Z,2.17
2022-08-23T02:53:52.716Z,2.15
2022-08-23T02:56:22.138Z,2.40
2022-08-23T02:58:54.496Z,2.30
2022-08-23T03:01:31.335Z,2.00
2022-08-23T03:06:34.164Z,2.38
2022-08-23T03:09:00.892Z,2.45
2022-08-23T03:11:27.782Z,2.55
2022-08-23T03:13:56.343Z,2.35
2022-08-23T03:16:23.725Z,2.42
2022-08-23T03:18:50.739Z,1.92
2022-08-23T03:21:20.485Z,2.10
2022-08-23T03:23:48.332Z,2.20
2022-08-23T03:26:15.581Z,2.75
2022-08-23T03:28:43.434Z,2.70
2022-08-23T03:31:11.256Z,2.53
2022-08-23T03:33:55.370Z,2.60
2022-08-23T03:36:27.895Z,1.88
2022-08-23T03:38:56.048Z,2.60
2022-08-23T03:41:22.704Z,2.28
2022-08-23T03:43:49.329Z,2.65
2022-08-23T03:46:23.684Z,2.22
2022-08-23T03:48:57.761Z,2.08
2022-08-23T03:51:25.417Z,2.40
2022-08-23T03:53:52.292Z,2.63
2022-08-23T03:56:37.333Z,2.30
2022-08-23T03:59:08.065Z,2.30
2022-08-23T04:01:34.868Z,3.45
2022-08-23T04:04:01.409Z,2.40
2022-08-23T04:06:32.986Z,2.55
2022-08-23T04:09:00.050Z,2.13
2022-08-23T04:11:27.485Z,2.33
2022-08-23T04:13:58.271Z,2.28
2022-08-23T04:16:25.496Z,2.60
2022-08-23T04:18:52.043Z,3.08
2022-08-23T04:21:22.700Z,2.70
2022-08-23T04:23:49.284Z,3.05
2022-08-23T04:26:15.908Z,2.78
2022-08-23T04:28:43.749Z,2.47
2022-08-23T04:31:10.513Z,2.38
2022-08-23T04:33:40.113Z,2.47
2022-08-23T04:36:08.532Z,2.90
2022-08-23T04:38:35.031Z,2.00
2022-08-23T04:41:24.006Z,2.92
2022-08-23T04:43:51.937Z,2.92
2022-08-23T04:46:18.590Z,2.60
2022-08-23T04:48:47.549Z,2.35
2022-08-23T04:51:15.599Z,2.63
2022-08-23T04:53:42.850Z,2.70
2022-08-23T04:56:30.382Z,2.92
2022-08-23T04:58:57.432Z,2.50
2022-08-23T05:01:25.452Z,2.50
2022-08-23T05:03:53.477Z,2.47
2022-08-23T05:06:23.419Z,2.95
2022-08-23T05:08:50.004Z,2.53
2022-08-23T05:11:18.882Z,3.20
2022-08-23T05:13:46.670Z,2.20
2022-08-23T05:16:14.145Z,2.58
2022-08-23T05:18:49.197Z,2.78
2022-08-23T05:21:17.476Z,2.55
2022-08-23T05:23:45.219Z,2.53
2022-08-23T05:26:20.573Z,2.78
2022-08-23T05:28:48.887Z,2.72
2022-08-23T05:31:26.295Z,2.83
2022-08-23T05:33:55.402Z,2.67
2022-08-23T05:36:31.802Z,2.80
2022-08-23T05:39:00.142Z,2.40
2022-08-23T05:41:29.094Z,3.30
2022-08-23T05:44:06.461Z,2.90
2022-08-23T05:46:34.373Z,2.63
2022-08-23T05:49:15.656Z,2.40
2022-08-23T05:51:51.629Z,3.13
2022-08-23T05:54:20.236Z,3.17
2022-08-23T05:56:56.191Z,3.40
2022-08-23T05:59:22.696Z,3.20
2022-08-23T06:01:50.324Z,2.65
2022-08-23T06:04:19.041Z,2.90
2022-08-23T06:06:45.869Z,3.15
2022-08-23T06:09:15.172Z,2.90
2022-08-23T06:11:45.570Z,3.42
2022-08-23T06:14:12.948Z,2.92
2022-08-23T06:16:46.332Z,3.38
2022-08-23T06:19:15.937Z,3.05
2022-08-23T06:21:48.342Z,3.25
2022-08-23T06:24:20.956Z,3.33
2022-08-23T06:26:54.458Z,2.92
2022-08-23T06:29:21.740Z,3.08
2022-08-23T06:31:53.463Z,3.38
2022-08-23T06:34:34.172Z,3.63
2022-08-23T06:37:20.524Z,3.03
2022-08-23T06:40:04.534Z,3.88
2022-08-23T06:42:44.043Z,3.00
2022-08-23T06:45:11.015Z,3.22
2022-08-23T06:47:41.654Z,3.50
2022-08-23T06:50:09.261Z,3.70
2022-08-23T06:52:54.779Z,3.47
2022-08-23T06:55:36.284Z,3.28
2022-08-23T06:58:22.253Z,3.50
2022-08-23T07:01:44.231Z,3.10
2022-08-23T07:04:36.040Z,3.67
2022-08-23T07:07:11.627Z,2.90
2022-08-23T07:09:40.187Z,3.10
2022-08-23T07:12:07.502Z,3.13
2022-08-23T07:14:37.348Z,2.90
2022-08-23T07:17:04.912Z,4.15
2022-08-23T07:19:34.508Z,3.17
2022-08-23T07:22:02.497Z,3.47
2022-08-23T07:24:33.548Z,3.10
2022-08-23T07:27:06.773Z,2.67
2022-08-23T07:29:36.894Z,2.80
2022-08-23T07:32:03.855Z,3.22
2022-08-23T07:34:30.427Z,3.58
2022-08-23T07:36:57.054Z,3.42
2022-08-23T07:39:24.068Z,3.47
2022-08-23T07:41:52.535Z,2.90
2022-08-23T07:44:21.138Z,3.20
2022-08-23T07:46:54.357Z,2.95
2022-08-23T07:49:20.978Z,2.60
2022-08-23T07:51:51.206Z,3.70
2022-08-23T07:54:22.771Z,3.38
2022-08-23T07:56:56.985Z,3.97
2022-08-23T07:59:46.119Z,3.22
2022-08-23T08:02:38.209Z,3.30
2022-08-23T08:05:07.448Z,3.10
2022-08-23T08:07:35.405Z,3.10
2022-08-23T08:10:04.827Z,3.33
2022-08-23T08:12:32.965Z,2.85
2022-08-23T08:15:06.569Z,3.55
2022-08-23T08:17:38.326Z,3.22
2022-08-23T08:20:28.920Z,3.08
2022-08-23T08:23:18.124Z,3.33
2022-08-23T08:26:07.137Z,3.05
2022-08-23T08:28:36.008Z,4.97
2022-08-23T08:31:04.057Z,3.50
2022-08-23T08:33:34.115Z,2.65
2022-08-23T08:36:03.583Z,2.80
2022-08-23T08:38:32.691Z,2.70
2022-08-23T08:41:18.421Z,2.85
2022-08-23T08:44:11.908Z,2.72
2022-08-23T08:46:57.066Z,2.70
2022-08-23T08:49:35.390Z,2.70
2022-08-23T08:52:24.837Z,2.65
2022-08-23T08:54:59.686Z,2.17
2022-08-23T08:57:27.492Z,3.25
2022-08-23T09:00:01.704Z,3.10
2022-08-23T09:02:33.765Z,2.70
2022-08-23T09:05:27.552Z,2.88
2022-08-23T09:08:01.035Z,2.72
2022-08-23T09:10:50.037Z,3.10
2022-08-23T09:13:53.385Z,3.13
2022-08-23T09:18:51.728Z,2.50
2022-08-23T09:21:18.997Z,3.22
2022-08-23T09:23:47.298Z,2.55
2022-08-23T09:26:27.304Z,2.85
2022-08-23T09:29:00.045Z,2.50
2022-08-23T09:34:04.771Z,2.72
2022-08-23T09:36:41.847Z,3.05
2022-08-23T09:39:31.297Z,2.78
2022-08-23T09:42:03.775Z,3.10
2022-08-23T09:44:39.946Z,3.17
2022-08-23T09:47:14.933Z,3.22
2022-08-23T09:49:48.351Z,2.85
2022-08-23T09:52:22.664Z,3.50
2022-08-23T09:55:04.369Z,3.03
2022-08-23T09:57:34.688Z,2.63
2022-08-23T10:00:36.949Z,3.00
2022-08-23T10:03:27.726Z,3.65
2022-08-23T10:06:05.671Z,3.30
2022-08-23T10:08:52.985Z,2.85
2022-08-23T10:11:24.187Z,3.60
2022-08-23T10:13:51.787Z,3.30
2022-08-23T10:17:08.291Z,3.17
2022-08-23T10:19:59.833Z,2.80
2022-08-23T10:22:42.730Z,3.20
2022-08-23T10:25:57.910Z,3.45
2022-08-23T10:29:07.587Z,3.28
2022-08-23T10:31:44.202Z,3.30
2022-08-23T10:34:23.370Z,2.58
2022-08-23T10:37:27.641Z,3.08
2022-08-23T10:40:09.665Z,2.80
2022-08-23T10:43:05.620Z,3.20
2022-08-23T10:45:36.469Z,3.60
2022-08-23T10:48:32.244Z,3.20
2022-08-23T10:51:05.610Z,3.20
2022-08-23T10:53:46.722Z,3.20
2022-08-23T10:56:19.076Z,3.17
2022-08-23T10:58:54.426Z,3.10
2022-08-23T11:01:26.447Z,3.03
2022-08-23T11:04:02.856Z,3.25
2022-08-23T11:06:37.908Z,2.80
2022-08-23T11:09:31.750Z,2.95
2022-08-23T11:12:19.000Z,3.45
2022-08-23T11:15:07.384Z,3.30
2022-08-23T11:17:57.661Z,3.10
2022-08-23T11:20:50.505Z,3.40
2022-08-23T11:24:14.643Z,3.45
2022-08-23T11:26:44.926Z,3.05
2022-08-23T11:29:36.377Z,3.00
2022-08-23T11:32:31.578Z,3.05
2022-08-23T11:35:21.905Z,3.45
2022-08-23T11:37:55.652Z,3.30
2022-08-23T11:40:37.737Z,3.47
2022-08-23T11:43:12.203Z,3.30
2022-08-23T11:45:47.480Z,3.03
2022-08-23T11:48:20.459Z,3.15
2022-08-23T11:51:12.097Z,3.00
2022-08-23T11:53:52.648Z,3.40
2022-08-23T11:56:47.064Z,3.00
2022-08-23T11:59:43.914Z,3.15
2022-08-23T12:02:32.141Z,3.15
2022-08-23T12:05:02.833Z,3.30
2022-08-23T12:07:46.053Z,3.63
2022-08-23T12:10:16.536Z,3.25
2022-08-23T12:12:47.104Z,3.22
2022-08-23T12:15:16.744Z,3.17
2022-08-23T12:17:43.153Z,3.20
2022-08-23T12:20:17.204Z,3.00
2022-08-23T12:23:11.435Z,3.28
2022-08-23T12:25:38.042Z,3.30
2022-08-23T12:28:33.112Z,3.30
2022-08-23T12:31:14.077Z,3.13
2022-08-23T12:33:43.635Z,3.35
2022-08-23T12:36:33.136Z,2.90
2022-08-23T12:39:08.466Z,2.97
2022-08-23T12:41:55.440Z,3.00
2022-08-23T12:44:24.873Z,3.15
2022-08-23T12:46:52.752Z,3.58
2022-08-23T12:49:37.553Z,3.05
2022-08-23T12:52:11.233Z,3.30
2022-08-23T12:54:37.659Z,3.55
2022-08-23T12:57:11.628Z,3.10
2022-08-23T12:59:45.428Z,2.90
2022-08-23T13:02:25.799Z,3.60
2022-08-23T13:04:59.330Z,3.28
2022-08-23T13:07:26.666Z,2.90
2022-08-23T13:09:55.447Z,3.08
2022-08-23T13:12:22.989Z,3.03
2022-08-23T13:14:52.566Z,3.33
2022-08-23T13:17:24.814Z,3.25
2022-08-23T13:19:54.132Z,3.20
2022-08-23T13:22:29.025Z,3.30
2022-08-23T13:25:27.423Z,3.22
2022-08-23T13:27:54.426Z,3.22
2022-08-23T13:30:24.217Z,3.30
2022-08-23T13:33:12.427Z,3.08
2022-08-23T13:35:44.684Z,3.55
2022-08-23T13:38:18.228Z,4.15
2022-08-23T13:40:54.172Z,3.03
2022-08-23T13:43:31.008Z,3.03
2022-08-23T13:46:00.651Z,3.30
2022-08-23T13:48:31.768Z,2.90
2022-08-23T13:51:18.224Z,2.92
2022-08-23T13:53:44.649Z,3.10
2022-08-23T13:56:11.143Z,2.97
2022-08-23T13:58:37.854Z,2.90
2022-08-23T14:01:12.023Z,3.20
2022-08-23T14:03:38.577Z,2.63
2022-08-23T14:06:05.168Z,2.50
2022-08-23T14:08:31.812Z,3.00
2022-08-23T14:10:58.283Z,3.20
2022-08-23T14:13:28.721Z,2.95
2022-08-23T14:21:33.778Z,2.47
2022-08-23T14:24:00.315Z,3.13
2022-08-23T14:26:27.199Z,3.20
2022-08-23T14:28:54.432Z,3.70
2022-08-23T14:31:21.212Z,2.47
2022-08-23T14:33:48.300Z,4.03
2022-08-23T14:36:15.784Z,4.45
2022-08-23T14:38:42.358Z,3.10
2022-08-23T14:41:13.222Z,3.03
2022-08-23T14:43:39.669Z,3.00
2022-08-23T14:46:06.133Z,2.50
2022-08-23T14:48:33.559Z,2.97
2022-08-23T14:51:00.221Z,2.75
2022-08-23T14:53:30.282Z,3.15
2022-08-23T14:56:19.937Z,2.50
2022-08-23T14:58:44.554Z,2.40
2022-08-23T15:01:12.834Z,2.90
2022-08-23T15:03:41.752Z,2.85
2022-08-23T15:06:10.077Z,3.33
2022-08-23T15:08:36.717Z,2.78
2022-08-23T15:13:55.262Z,2.38
2022-08-23T15:16:22.637Z,3.13
2022-08-23T15:18:51.349Z,2.92
2022-08-23T15:21:18.976Z,2.85
2022-08-23T15:23:47.160Z,3.03
2022-08-23T15:26:16.595Z,3.05
2022-08-23T15:28:43.147Z,2.28
2022-08-23T15:31:11.826Z,2.72
2022-08-23T15:33:39.013Z,2.28
2022-08-23T15:36:08.151Z,2.90
2022-08-23T15:38:36.097Z,2.80
2022-08-23T15:41:02.907Z,2.47
2022-08-23T15:43:34.998Z,2.20
2022-08-23T15:46:07.884Z,3.20
2022-08-23T15:48:41.497Z,3.00
2022-08-23T15:51:09.724Z,2.13
2022-08-23T15:53:40.194Z,2.50
2022-08-23T15:56:14.711Z,2.40
2022-08-23T15:58:41.995Z,2.50
2022-08-23T16:01:09.596Z,2.20
2022-08-23T16:03:38.059Z,2.75
2022-08-23T16:06:05.480Z,2.78
2022-08-23T16:08:34.586Z,2.65
2022-08-23T16:11:04.825Z,2.22
2022-08-23T16:13:31.275Z,2.63
2022-08-23T16:15:57.838Z,2.55
2022-08-23T16:18:24.341Z,2.60
2022-08-23T16:20:54.555Z,2.53
2022-08-23T16:23:21.792Z,2.50
2022-08-23T16:25:48.210Z,2.60
2022-08-23T16:28:14.769Z,2.13
2022-08-23T16:30:41.387Z,2.45
2022-08-23T16:33:07.855Z,3.22
2022-08-23T16:35:34.283Z,2.65
2022-08-23T16:38:00.748Z,2.70
2022-08-23T16:40:27.244Z,2.22
2022-08-23T16:42:54.002Z,2.85
2022-08-23T16:45:25.051Z,2.88
2022-08-23T16:47:52.211Z,2.92
2022-08-23T16:50:18.669Z,3.35
2022-08-23T16:52:45.104Z,5.13
2022-08-23T16:55:15.246Z,2.75
2022-08-23T16:57:41.851Z,4.63
2022-08-23T17:00:13.774Z,4.65
2022-08-23T17:02:43.712Z,4.67
2022-08-23T17:05:13.456Z,4.00
2022-08-23T17:07:40.063Z,3.20
2022-08-23T17:10:08.562Z,3.40
2022-08-23T17:12:37.928Z,3.33
2022-08-23T17:15:05.627Z,3.83
2022-08-23T17:17:32.928Z,3.08
2022-08-23T17:20:00.112Z,3.00
2022-08-23T17:22:26.582Z,2.50
2022-08-23T17:24:53.283Z,3.50
2022-08-23T17:27:23.078Z,3.30
2022-08-23T17:29:51.652Z,3.17
2022-08-23T17:32:21.551Z,2.67
2022-08-23T17:34:48.215Z,3.10
2022-08-23T17:37:17.799Z,2.90
2022-08-23T17:39:44.690Z,3.20
2022-08-23T17:42:11.164Z,3.03
2022-08-23T17:44:37.812Z,2.80
2022-08-23T17:47:08.466Z,3.97
2022-08-23T17:49:34.931Z,5.20
2022-08-23T17:52:03.176Z,5.15
2022-08-23T17:54:29.635Z,6.25
2022-08-23T17:56:57.536Z,6.32
2022-08-23T17:59:24.019Z,5.97
2022-08-23T18:01:50.752Z,5.07
2022-08-23T18:04:17.626Z,4.18
2022-08-23T18:06:44.758Z,3.70
2022-08-23T18:09:12.242Z,3.63
2022-08-23T18:11:39.044Z,2.90
2022-08-23T18:14:06.103Z,3.25
2022-08-23T18:16:35.499Z,3.00
2022-08-23T18:19:03.890Z,3.65
2022-08-23T18:21:30.969Z,3.80
2022-08-23T18:23:59.110Z,4.50
2022-08-23T18:26:45.021Z,3.58
2022-08-23T18:29:14.289Z,3.13
2022-08-23T18:31:42.952Z,3.40
2022-08-23T18:34:10.867Z,3.92
2022-08-23T18:36:37.767Z,3.70
2022-08-23T18:39:06.638Z,4.18
2022-08-23T18:41:33.313Z,3.92
2022-08-23T18:44:00.639Z,3.05
2022-08-23T18:46:33.890Z,3.63
2022-08-23T18:49:00.855Z,3.03
2022-08-23T18:51:27.937Z,3.40
2022-08-23T18:53:54.364Z,2.95
2022-08-23T18:56:21.134Z,3.90
2022-08-23T18:58:47.846Z,3.95
2022-08-23T19:01:29.552Z,4.03
2022-08-23T19:03:58.134Z,4.97
2022-08-23T19:06:24.972Z,3.85
2022-08-23T19:08:51.948Z,3.38
2022-08-23T19:11:20.014Z,4.95
2022-08-23T19:13:47.604Z,3.45
2022-08-23T19:16:15.612Z,3.60
2022-08-23T19:18:47.284Z,3.55
2022-08-23T19:21:18.236Z,3.25
2022-08-23T19:23:46.216Z,3.78
2022-08-23T19:26:14.595Z,3.25
2022-08-23T19:28:41.461Z,3.20
2022-08-23T19:31:08.280Z,3.15
2022-08-23T19:33:35.096Z,3.20
2022-08-23T19:36:02.696Z,2.80
2022-08-23T19:38:29.386Z,3.08
2022-08-23T19:40:56.345Z,3.35
2022-08-23T19:43:23.951Z,3.83
2022-08-23T19:45:51.073Z,3.95
2022-08-23T19:48:19.219Z,3.70
2022-08-23T19:50:47.645Z,3.08
2022-08-23T19:53:14.265Z,2.97
2022-08-23T19:55:43.321Z,2.40
2022-08-23T19:58:13.535Z,3.15
2022-08-23T20:00:40.791Z,3.35
2022-08-23T20:03:07.294Z,3.70
2022-08-23T20:05:34.437Z,3.15
2022-08-23T20:08:01.273Z,3.00
2022-08-23T20:10:28.006Z,3.15
2022-08-23T20:12:54.547Z,3.65
2022-08-23T20:15:21.139Z,3.38
2022-08-23T20:17:47.556Z,3.40
2022-08-23T20:20:14.329Z,3.42
2022-08-23T20:22:59.689Z,3.42
2022-08-23T20:25:26.331Z,3.55
2022-08-23T20:27:52.705Z,3.47
2022-08-23T20:30:19.237Z,3.03
2022-08-23T20:32:45.871Z,3.15
2022-08-23T20:35:12.478Z,3.17
2022-08-23T20:37:39.652Z,2.95
2022-08-23T20:40:10.349Z,2.75
2022-08-23T20:42:38.497Z,2.92
2022-08-23T20:45:06.053Z,3.85
2022-08-23T20:47:33.353Z,2.78
2022-08-23T20:50:00.136Z,2.80
2022-08-23T20:52:26.602Z,3.00
2022-08-23T20:54:53.630Z,2.88
2022-08-23T20:57:20.212Z,3.70
2022-08-23T20:59:46.657Z,3.45
2022-08-23T21:02:13.564Z,3.42
2022-08-23T21:04:40.394Z,3.08
2022-08-23T21:07:08.572Z,3.40
2022-08-23T21:09:35.475Z,3.30
2022-08-23T21:12:02.138Z,3.13
2022-08-23T21:14:28.682Z,3.10
2022-08-23T21:16:55.150Z,2.60
2022-08-23T21:19:21.611Z,4.10
2022-08-23T21:21:48.016Z,2.90
2022-08-23T21:24:15.068Z,3.58
2022-08-23T21:26:42.299Z,3.53
2022-08-23T21:29:09.828Z,2.53
2022-08-23T21:31:37.908Z,3.03
2022-08-23T21:34:04.597Z,3.10
2022-08-23T21:36:31.139Z,2.83
2022-08-23T21:38:57.637Z,3.42
2022-08-23T21:41:35.091Z,3.00
2022-08-23T21:44:03.381Z,3.20
2022-08-23T21:46:30.028Z,3.05
2022-08-23T21:48:56.656Z,2.92
2022-08-23T21:51:23.214Z,3.15
2022-08-23T21:53:50.118Z,3.70
2022-08-23T21:56:17.680Z,3.00
2022-08-23T21:58:44.287Z,3.78
2022-08-23T22:01:11.591Z,3.13
2022-08-23T22:03:38.264Z,3.28
2022-08-23T22:06:05.297Z,3.33
2022-08-23T22:08:31.986Z,2.97
2022-08-23T22:11:05.131Z,3.60
2022-08-23T22:13:32.826Z,3.50
2022-08-23T22:16:02.898Z,3.75
2022-08-23T22:18:29.993Z,3.88
2022-08-23T22:20:58.331Z,3.47
2022-08-23T22:23:27.749Z,3.83
2022-08-23T22:26:00.197Z,3.58
2022-08-23T22:28:32.698Z,3.20
2022-08-23T22:31:01.334Z,4.07
2022-08-23T22:33:27.888Z,3.53
2022-08-23T22:35:54.499Z,3.55
2022-08-23T22:38:21.030Z,3.47
2022-08-23T22:40:49.655Z,3.78
2022-08-23T22:43:17.092Z,3.42
2022-08-23T22:45:57.993Z,3.67
2022-08-23T22:48:26.317Z,3.88
2022-08-23T22:51:09.722Z,3.95
2022-08-23T22:53:38.101Z,3.28
2022-08-23T22:56:05.661Z,3.97
2022-08-23T22:58:33.128Z,4.53
2022-08-23T23:00:59.717Z,3.40
2022-08-23T23:03:31.449Z,3.92
2022-08-23T23:05:58.017Z,4.30
2022-08-23T23:08:29.265Z,4.00
2022-08-23T23:11:04.506Z,3.90
2022-08-23T23:13:31.999Z,4.30
2022-08-23T23:16:02.052Z,4.07
2022-08-23T23:18:28.641Z,3.78
2022-08-23T23:20:59.466Z,4.03
2022-08-23T23:23:27.975Z,4.85
2022-08-23T23:25:54.736Z,4.25
2022-08-23T23:28:21.794Z,3.78
2022-08-23T23:30:51.014Z,3.83
2022-08-23T23:33:18.910Z,3.83
2022-08-23T23:35:45.368Z,3.30
2022-08-23T23:38:12.509Z,4.28
2022-08-23T23:40:40.239Z,3.60
2022-08-23T23:43:07.214Z,3.67
2022-08-23T23:45:37.301Z,3.97
2022-08-23T23:48:04.111Z,3.85
2022-08-23T23:50:35.094Z,3.72
2022-08-23T23:53:01.592Z,3.65
2022-08-23T23:55:28.320Z,3.75
2022-08-23T23:57:56.248Z,4.53
